Time;durP1;ratioP1;P1;durP2;ratioP2;P2;SDS_P1;SDS_P2;PMS_P1;PMS_P2;Temp;Humidity;BMP_temperature;BMP_pressure;BME280_temperature;BME280_humidity;BME280_pressure;Samples;Min_cycle;Max_cycle;Signal;HPM_P1;HPM_P2
2022/11/28 00:01:56;;;;;;;29.58;20.58;;;;;;;;;;5034480;28;20053;-79
2022/11/28 00:04:23;;;;;;;31.05;21.02;;;;;;;;;;5034828;28;20029;-78
2022/11/28 00:06:49;;;;;;;27.17;18.70;;;;;;;;;;5034757;28;20057;-78
2022/11/28 00:09:16;;;;;;;30.88;20.83;;;;;;;;;;5034349;28;20029;-78
2022/11/28 00:11:44;;;;;;;30.30;20.65;;;;;;;;;;5034728;28;20053;-78
2022/11/28 00:14:10;;;;;;;32.80;20.33;;;;;;;;;;5034274;28;20029;-78
2022/11/28 00:16:36;;;;;;;30.02;19.00;;;;;;;;;;5034528;28;20065;-78
2022/11/28 00:19:03;;;;;;;31.40;21.17;;;;;;;;;;5034270;28;20084;-78
2022/11/28 00:21:30;;;;;;;30.30;20.17;;;;;;;;;;5034425;28;20025;-78
2022/11/28 00:23:56;;;;;;;31.65;20.65;;;;;;;;;;5034524;28;20115;-78
2022/11/28 00:26:27;;;;;;;29.63;19.73;;;;;;;;;;5034173;28;20491;-79
2022/11/28 00:28:54;;;;;;;33.40;20.75;;;;;;;;;;5034324;28;20100;-78
2022/11/28 00:31:22;;;;;;;30.67;20.15;;;;;;;;;;5034002;28;20029;-78
2022/11/28 00:33:48;;;;;;;29.40;19.65;;;;;;;;;;5034331;28;20104;-79
2022/11/28 00:36:15;;;;;;;30.50;20.73;;;;;;;;;;5033909;28;20034;-78
2022/11/28 00:38:41;;;;;;;49.95;32.53;;;;;;;;;;5034144;28;20040;-79
2022/11/28 00:41:12;;;;;;;32.00;22.27;;;;;;;;;;5033790;28;20101;-79
2022/11/28 00:43:39;;;;;;;32.70;21.67;;;;;;;;;;5034114;28;20029;-78
2022/11/28 00:46:05;;;;;;;31.45;22.00;;;;;;;;;;5033895;28;20030;-79
2022/11/28 00:48:32;;;;;;;37.58;25.27;;;;;;;;;;5034042;28;20040;-79
2022/11/28 00:51:05;;;;;;;38.58;25.95;;;;;;;;;;5033916;28;20456;-79
2022/11/28 00:53:31;;;;;;;37.90;25.13;;;;;;;;;;5033836;28;20033;-79
2022/11/28 00:55:57;;;;;;;43.85;25.35;;;;;;;;;;5033587;28;20056;-79
2022/11/28 00:58:23;;;;;;;38.65;23.13;;;;;;;;;;5033681;28;20496;-79
2022/11/28 01:00:49;;;;;;;34.92;22.75;;;;;;;;;;5032573;28;20025;-78
2022/11/28 01:03:16;;;;;;;36.97;22.75;;;;;;;;;;5033303;28;20026;-79
2022/11/28 01:05:42;;;;;;;28.63;20.42;;;;;;;;;;5033754;28;20052;-79
2022/11/28 01:08:09;;;;;;;30.45;20.67;;;;;;;;;;5033242;28;20068;-79
2022/11/28 01:10:38;;;;;;;33.15;21.98;;;;;;;;;;5033505;28;20029;-79
2022/11/28 01:13:05;;;;;;;31.27;22.10;;;;;;;;;;5015466;28;20523;-79
2022/11/28 01:15:31;;;;;;;32.38;20.83;;;;;;;;;;5033497;28;20025;-79
2022/11/28 01:17:57;;;;;;;32.45;21.95;;;;;;;;;;5033417;28;20033;-79
2022/11/28 01:20:23;;;;;;;29.88;21.05;;;;;;;;;;5032958;28;20037;-78
2022/11/28 01:22:49;;;;;;;31.48;21.92;;;;;;;;;;5033172;28;20504;-79
2022/11/28 01:25:15;;;;;;;28.80;20.23;;;;;;;;;;5033046;28;20056;-78
2022/11/28 01:27:41;;;;;;;33.00;21.75;;;;;;;;;;5033262;28;20033;-79
2022/11/28 01:30:08;;;;;;;29.60;20.55;;;;;;;;;;5032708;28;20053;-79
2022/11/28 01:32:34;;;;;;;29.48;20.25;;;;;;;;;;5015369;28;20389;-78
2022/11/28 01:35:00;;;;;;;31.10;21.55;;;;;;;;;;5033098;28;20025;-78
2022/11/28 01:37:28;;;;;;;30.63;21.25;;;;;;;;;;5032607;28;20033;-78
2022/11/28 01:39:54;;;;;;;28.85;20.33;;;;;;;;;;5032864;28;20088;-78
2022/11/28 01:42:21;;;;;;;30.80;21.17;;;;;;;;;;5032524;28;20026;-79
2022/11/28 01:44:47;;;;;;;28.73;19.38;;;;;;;;;;5032934;28;20042;-79
2022/11/28 01:47:14;;;;;;;28.65;19.25;;;;;;;;;;5032547;28;20025;-79
2022/11/28 01:49:41;;;;;;;27.98;20.58;;;;;;;;;;5032826;28;20489;-79
2022/11/28 01:52:08;;;;;;;30.52;20.63;;;;;;;;;;5032562;28;20032;-79
2022/11/28 01:54:36;;;;;;;27.50;17.65;;;;;;;;;;5032486;28;20036;-79
2022/11/28 01:57:04;;;;;;;27.75;19.10;;;;;;;;;;5032907;28;20528;-79
2022/11/28 01:59:32;;;;;;;28.83;19.13;;;;;;;;;;5032495;28;20033;-79
2022/11/28 02:01:58;;;;;;;26.63;18.77;;;;;;;;;;5032595;28;20522;-79
2022/11/28 02:04:26;;;;;;;27.73;19.13;;;;;;;;;;5032349;28;20080;-79
2022/11/28 02:06:52;;;;;;;28.77;19.90;;;;;;;;;;5032617;28;20033;-79
2022/11/28 02:09:18;;;;;;;26.83;18.65;;;;;;;;;;5032159;28;20025;-79
2022/11/28 02:12:03;;;;;;;24.30;17.10;;;;;;;;;;5032080;28;20026;-79
2022/11/28 02:14:29;;;;;;;;;;;;;;;;;;5032809;28;20131;-79
2022/11/28 02:16:58;;;;;;;24.50;17.38;;;;;;;;;;5032207;28;20021;-78
2022/11/28 02:19:40;;;;;;;26.08;17.58;;;;;;;;;;5032176;28;20385;-79
2022/11/28 02:22:16;;;;;;;24.90;16.30;;;;;;;;;;5032358;28;20029;-79
2022/11/28 02:24:42;;;;;;;25.52;18.00;;;;;;;;;;5032053;28;20112;-78
2022/11/28 02:27:14;;;;;;;23.45;16.50;;;;;;;;;;5032324;28;20883;-79
2022/11/28 02:29:50;;;;;;;26.65;18.25;;;;;;;;;;5031939;28;20085;-79
2022/11/28 02:32:16;;;;;;;25.90;17.88;;;;;;;;;;5032313;28;20053;-79
2022/11/28 02:34:46;;;;;;;27.00;18.88;;;;;;;;;;5031894;28;20085;-79
2022/11/28 02:37:30;;;;;;;26.92;18.45;;;;;;;;;;5032129;28;20032;-79
2022/11/28 02:39:56;;;;;;;;;;;;;;;;;;5032506;28;20033;-79
2022/11/28 02:42:30;;;;;;;25.13;17.13;;;;;;;;;;5014174;28;19999;-78
2022/11/28 02:45:06;;;;;;;27.45;19.27;;;;;;;;;;5032186;28;20025;-79
2022/11/28 02:47:36;;;;;;;28.85;18.63;;;;;;;;;;5032027;28;20528;-78
2022/11/28 02:50:08;;;;;;;25.80;17.17;;;;;;;;;;5031733;28;20104;-79
2022/11/28 02:52:40;;;;;;;27.73;19.38;;;;;;;;;;5031913;28;20029;-79
2022/11/28 02:55:07;;;;;;;25.20;16.95;;;;;;;;;;5014115;28;20057;-79
2022/11/28 02:57:37;;;;;;;23.48;16.33;;;;;;;;;;5031976;28;20034;-78
2022/11/28 03:00:22;;;;;;;24.10;17.98;;;;;;;;;;5031654;28;20438;-79
2022/11/28 03:02:51;;;;;;;22.17;15.60;;;;;;;;;;5031461;28;20531;-78
2022/11/28 03:05:23;;;;;;;23.75;16.77;;;;;;;;;;5031855;28;20532;-79
2022/11/28 03:07:52;;;;;;;21.50;16.35;;;;;;;;;;5031778;28;20120;-79
2022/11/28 03:10:21;;;;;;;23.60;16.05;;;;;;;;;;5031807;28;20057;-79
2022/11/28 03:12:51;;;;;;;21.95;16.25;;;;;;;;;;5031745;28;20113;-79
2022/11/28 03:15:19;;;;;;;25.23;17.83;;;;;;;;;;5031775;28;20030;-79
2022/11/28 03:17:46;;;;;;;23.95;17.00;;;;;;;;;;5031820;28;20384;-79
2022/11/28 03:20:30;;;;;;;24.50;17.13;;;;;;;;;;5031688;28;20033;-79
2022/11/28 03:23:06;;;;;;;25.08;18.73;;;;;;;;;;5031721;28;20033;-78
2022/11/28 03:25:32;;;;;;;23.52;17.52;;;;;;;;;;5035390;28;20025;-79
2022/11/28 03:28:16;;;;;;;26.65;17.90;;;;;;;;;;5035332;28;20079;-79
2022/11/28 03:30:42;;;;;;;28.63;19.23;;;;;;;;;;5035336;28;20014;-79
2022/11/28 03:33:09;;;;;;;27.23;18.40;;;;;;;;;;5035356;28;20080;-79
2022/11/28 03:35:38;;;;;;;23.92;16.58;;;;;;;;;;5017907;28;20121;-78
2022/11/28 03:38:06;;;;;;;23.92;17.73;;;;;;;;;;5035140;28;20157;-79
2022/11/28 03:40:42;;;;;;;24.92;18.02;;;;;;;;;;5034980;28;20061;-79
2022/11/28 03:43:11;;;;;;;24.70;17.65;;;;;;;;;;5035226;28;20108;-79
2022/11/28 03:45:55;;;;;;;24.20;16.40;;;;;;;;;;5034916;28;20037;-78
2022/11/28 03:48:32;;;;;;;25.48;16.73;;;;;;;;;;5034987;28;20097;-79
2022/11/28 03:51:01;;;;;;;22.45;15.63;;;;;;;;;;5034977;28;20030;-79
2022/11/28 03:53:31;;;;;;;23.30;16.35;;;;;;;;;;5034842;28;20032;-78
2022/11/28 03:55:57;;;;;;;20.27;15.63;;;;;;;;;;5035130;28;20041;-78
2022/11/28 03:58:26;;;;;;;21.75;16.02;;;;;;;;;;5034705;28;20025;-79
2022/11/28 04:01:01;;;;;;;26.58;17.90;;;;;;;;;;5034642;28;20514;-79
2022/11/28 04:03:35;;;;;;;24.35;16.58;;;;;;;;;;5034617;28;20499;-79
2022/11/28 04:06:13;;;;;;;21.60;14.38;;;;;;;;;;5034512;28;20032;-79
2022/11/28 04:08:40;;;;;;;24.35;16.27;;;;;;;;;;5034722;28;20041;-78
2022/11/28 04:11:07;;;;;;;22.65;16.95;;;;;;;;;;5034554;28;20087;-78
2022/11/28 04:13:37;;;;;;;19.95;15.80;;;;;;;;;;5034549;28;20468;-78
2022/11/28 04:16:15;;;;;;;22.92;16.60;;;;;;;;;;5016711;28;20025;-78
2022/11/28 04:18:50;;;;;;;23.13;16.42;;;;;;;;;;5034102;28;20037;-79
2022/11/28 04:21:16;;;;;;;23.08;16.77;;;;;;;;;;5034491;28;20381;-78
2022/11/28 04:23:45;;;;;;;20.30;14.02;;;;;;;;;;5034213;28;20357;-78
2022/11/28 04:26:16;;;;;;;24.63;16.05;;;;;;;;;;5034429;28;20061;-78
2022/11/28 04:28:44;;;;;;;22.02;16.40;;;;;;;;;;5033968;28;20392;-78
2022/11/28 04:31:10;;;;;;;21.48;14.85;;;;;;;;;;5034374;28;20111;-78
2022/11/28 04:33:39;;;;;;;20.95;15.73;;;;;;;;;;5033921;28;20029;-78
2022/11/28 04:36:07;;;;;;;20.52;13.90;;;;;;;;;;5034004;28;20034;-78
2022/11/28 04:38:34;;;;;;;19.67;13.77;;;;;;;;;;5033817;28;20057;-78
2022/11/28 04:41:02;;;;;;;17.60;13.07;;;;;;;;;;5034214;28;20069;-78
2022/11/28 04:43:34;;;;;;;18.17;13.40;;;;;;;;;;5033625;28;20026;-78
2022/11/28 04:46:03;;;;;;;15.77;12.57;;;;;;;;;;5033133;28;20035;-78
2022/11/28 04:48:29;;;;;;;17.50;13.02;;;;;;;;;;5033305;28;20025;-78
2022/11/28 04:51:08;;;;;;;16.35;12.70;;;;;;;;;;5033789;28;20037;-79
2022/11/28 04:53:36;;;;;;;16.58;11.93;;;;;;;;;;5029284;28;20400;-79
2022/11/28 04:56:06;;;;;;;17.42;13.55;;;;;;;;;;5020614;28;20061;-78
2022/11/28 04:58:37;;;;;;;17.50;12.10;;;;;;;;;;5021517;28;20036;-78
2022/11/28 05:01:05;;;;;;;16.95;12.95;;;;;;;;;;5018870;28;20117;-78
2022/11/28 05:03:32;;;;;;;14.45;11.75;;;;;;;;;;5013909;28;20030;-78
2022/11/28 05:05:58;;;;;;;16.77;12.30;;;;;;;;;;5013727;28;20030;-78
2022/11/28 05:08:24;;;;;;;17.13;12.57;;;;;;;;;;5013542;28;20110;-78
2022/11/28 05:10:50;;;;;;;18.95;12.13;;;;;;;;;;5013473;28;20033;-78
2022/11/28 05:13:16;;;;;;;27.25;18.52;;;;;;;;;;5015556;28;20030;-78
2022/11/28 05:15:43;;;;;;;18.30;13.38;;;;;;;;;;5013665;28;20478;-78
2022/11/28 05:18:09;;;;;;;18.15;13.15;;;;;;;;;;5013551;28;20033;-79
2022/11/28 05:20:36;;;;;;;18.77;12.68;;;;;;;;;;5021897;28;20033;-78
2022/11/28 05:23:02;;;;;;;15.73;12.68;;;;;;;;;;5013601;28;20030;-78
2022/11/28 05:25:28;;;;;;;15.93;12.52;;;;;;;;;;5013348;28;20040;-78
2022/11/28 05:27:55;;;;;;;17.67;13.75;;;;;;;;;;5013611;28;20018;-78
2022/11/28 05:30:21;;;;;;;18.15;13.25;;;;;;;;;;5013253;28;20026;-79
2022/11/28 05:32:47;;;;;;;17.05;13.05;;;;;;;;;;5013981;28;20468;-79
2022/11/28 05:35:13;;;;;;;16.45;12.40;;;;;;;;;;5023405;28;20034;-78
2022/11/28 05:37:39;;;;;;;16.80;13.50;;;;;;;;;;5013076;28;20029;-78
2022/11/28 05:40:06;;;;;;;15.35;12.35;;;;;;;;;;4997450;28;20489;-78
2022/11/28 05:42:33;;;;;;;19.58;13.52;;;;;;;;;;5013219;28;20076;-78
2022/11/28 05:44:59;;;;;;;15.82;12.65;;;;;;;;;;5012669;28;20476;-78
2022/11/28 05:47:25;;;;;;;14.68;11.88;;;;;;;;;;5012385;28;20037;-79
2022/11/28 05:49:51;;;;;;;19.98;15.32;;;;;;;;;;5013320;28;20030;-79
2022/11/28 05:52:17;;;;;;;19.35;13.30;;;;;;;;;;5013119;28;20499;-78
2022/11/28 05:54:43;;;;;;;20.58;14.85;;;;;;;;;;4995275;28;20037;-78
2022/11/28 05:57:09;;;;;;;21.05;15.95;;;;;;;;;;5002899;28;20030;-78
2022/11/28 05:59:35;;;;;;;24.48;17.08;;;;;;;;;;5016196;28;20061;-78
2022/11/28 06:02:02;;;;;;;26.25;18.83;;;;;;;;;;5018806;28;20052;-78
2022/11/28 06:04:28;;;;;;;18.92;15.40;;;;;;;;;;5018173;28;20028;-78
2022/11/28 06:06:54;;;;;;;20.17;15.48;;;;;;;;;;5022184;28;20025;-80
2022/11/28 06:09:20;;;;;;;20.25;16.50;;;;;;;;;;5021205;28;20021;-79
2022/11/28 06:11:46;;;;;;;21.83;17.10;;;;;;;;;;5022759;28;20075;-79
2022/11/28 06:14:12;;;;;;;22.00;16.67;;;;;;;;;;5022988;28;20025;-79
2022/11/28 06:16:41;;;;;;;23.48;17.60;;;;;;;;;;5021057;28;20065;-80
2022/11/28 06:19:07;;;;;;;24.23;17.80;;;;;;;;;;5021360;28;20549;-80
2022/11/28 06:21:33;;;;;;;22.13;16.13;;;;;;;;;;5022455;28;20100;-80
2022/11/28 06:23:59;;;;;;;21.67;16.25;;;;;;;;;;5025655;28;20934;-80
2022/11/28 06:26:26;;;;;;;16.52;13.60;;;;;;;;;;5014140;28;20057;-79
2022/11/28 06:28:54;;;;;;;15.98;13.65;;;;;;;;;;5012387;28;20025;-79
2022/11/28 06:31:21;;;;;;;18.88;14.82;;;;;;;;;;5015721;28;20485;-79
2022/11/28 06:33:47;;;;;;;17.50;13.75;;;;;;;;;;5012717;28;20189;-80
2022/11/28 06:36:14;;;;;;;18.00;13.50;;;;;;;;;;5011089;28;20113;-79
2022/11/28 06:38:40;;;;;;;16.73;12.63;;;;;;;;;;5003385;28;20038;-83
2022/11/28 06:41:09;;;;;;;18.55;13.75;;;;;;;;;;4991383;28;20476;-80
2022/11/28 06:43:35;;;;;;;18.90;14.05;;;;;;;;;;5014761;28;20045;-84
2022/11/28 06:46:01;;;;;;;21.77;16.27;;;;;;;;;;5005130;28;20549;-78
2022/11/28 06:48:27;;;;;;;27.38;19.33;;;;;;;;;;5010195;28;20037;-79
2022/11/28 06:50:54;;;;;;;19.45;15.57;;;;;;;;;;5008474;28;20029;-80
2022/11/28 06:53:20;;;;;;;19.50;15.85;;;;;;;;;;4991890;28;20030;-78
2022/11/28 06:55:55;;;;;;;20.40;15.43;;;;;;;;;;5010167;28;20033;-80
2022/11/28 06:58:25;;;;;;;18.95;14.15;;;;;;;;;;4985764;28;20036;-77
2022/11/28 07:00:51;;;;;;;19.55;15.15;;;;;;;;;;5014069;28;20460;-79
2022/11/28 07:03:18;;;;;;;22.05;17.35;;;;;;;;;;5022921;28;20068;-79
2022/11/28 07:05:51;;;;;;;24.58;17.13;;;;;;;;;;5013545;28;20069;-80
2022/11/28 07:08:21;;;;;;;24.83;20.00;;;;;;;;;;4992113;28;20081;-78
2022/11/28 07:10:49;;;;;;;34.97;24.70;;;;;;;;;;5019172;28;20029;-79
2022/11/28 07:13:15;;;;;;;26.45;18.55;;;;;;;;;;4997692;28;20025;-79
2022/11/28 07:15:47;;;;;;;22.88;16.83;;;;;;;;;;5007345;28;20068;-79
2022/11/28 07:18:14;;;;;;;27.60;20.17;;;;;;;;;;5020543;28;20029;-79
2022/11/28 07:20:43;;;;;;;22.92;18.85;;;;;;;;;;4996288;28;20033;-78
2022/11/28 07:23:10;;;;;;;34.38;25.38;;;;;;;;;;5020042;28;20093;-78
2022/11/28 07:25:36;;;;;;;28.73;22.63;;;;;;;;;;5011615;28;20041;-77
2022/11/28 07:28:02;;;;;;;25.00;19.15;;;;;;;;;;5007893;28;20027;-77
2022/11/28 07:30:32;;;;;;;36.15;26.65;;;;;;;;;;5003100;28;20084;-78
2022/11/28 07:33:05;;;;;;;32.90;21.67;;;;;;;;;;4994513;28;20084;-77
2022/11/28 07:35:34;;;;;;;27.27;21.85;;;;;;;;;;5010889;28;20030;-77
2022/11/28 07:38:01;;;;;;;34.30;24.73;;;;;;;;;;5012826;28;20502;-78
2022/11/28 07:40:27;;;;;;;22.58;17.38;;;;;;;;;;5017604;28;20476;-78
2022/11/28 07:42:53;;;;;;;25.23;17.88;;;;;;;;;;5016124;28;20037;-80
2022/11/28 07:45:19;;;;;;;25.23;19.80;;;;;;;;;;4998266;28;20384;-78
2022/11/28 07:47:45;;;;;;;18.90;15.55;;;;;;;;;;5010609;28;20051;-78
2022/11/28 07:50:12;;;;;;;23.42;17.00;;;;;;;;;;5021330;28;20101;-77
2022/11/28 07:52:38;;;;;;;20.80;15.55;;;;;;;;;;5013277;28;20109;-77
2022/11/28 07:55:04;;;;;;;20.23;15.95;;;;;;;;;;5012887;28;20038;-78
2022/11/28 07:57:30;;;;;;;19.90;15.63;;;;;;;;;;5011856;28;20037;-78
2022/11/28 07:59:56;;;;;;;17.42;14.32;;;;;;;;;;5013434;28;20037;-77
2022/11/28 08:02:22;;;;;;;17.63;13.48;;;;;;;;;;5019990;28;20500;-76
2022/11/28 08:04:48;;;;;;;18.98;14.68;;;;;;;;;;4993463;28;20025;-78
2022/11/28 08:07:14;;;;;;;24.88;17.92;;;;;;;;;;5006905;28;20109;-78
2022/11/28 08:09:40;;;;;;;24.35;17.92;;;;;;;;;;5021765;28;20033;-78
2022/11/28 08:12:07;;;;;;;21.58;14.15;;;;;;;;;;5010526;28;20037;-77
2022/11/28 08:14:33;;;;;;;34.15;18.00;;;;;;;;;;5012717;28;20033;-80
2022/11/28 08:16:59;;;;;;;22.75;17.27;;;;;;;;;;4991775;28;20026;-76
2022/11/28 08:19:25;;;;;;;27.15;15.48;;;;;;;;;;5012246;28;20497;-79
2022/11/28 08:21:52;;;;;;;20.48;13.02;;;;;;;;;;5014201;28;20108;-78
2022/11/28 08:24:18;;;;;;;552.65;140.60;;;;;;;;;;5010904;28;20018;-77
2022/11/28 08:26:44;;;;;;;38.60;24.80;;;;;;;;;;5012358;28;20370;-78
2022/11/28 08:29:10;;;;;;;26.35;21.50;;;;;;;;;;5015215;28;20036;-77
2022/11/28 08:31:38;;;;;;;15.38;11.48;;;;;;;;;;5011047;28;20113;-77
2022/11/28 08:34:06;;;;;;;18.17;14.05;;;;;;;;;;5012767;28;20029;-77
2022/11/28 08:36:32;;;;;;;16.17;13.00;;;;;;;;;;4991989;28;20048;-77
2022/11/28 08:39:02;;;;;;;20.08;16.80;;;;;;;;;;5010264;28;20037;-79
2022/11/28 08:41:28;;;;;;;20.10;15.13;;;;;;;;;;5010342;28;20091;-77
2022/11/28 08:43:55;;;;;;;17.05;13.60;;;;;;;;;;4993964;28;20113;-76
2022/11/28 08:46:24;;;;;;;233.32;61.17;;;;;;;;;;5010075;28;20026;-77
2022/11/28 08:48:51;;;;;;;33.15;19.42;;;;;;;;;;4992575;28;20030;-75
2022/11/28 08:51:19;;;;;;;21.23;16.00;;;;;;;;;;5013712;28;20140;-77
2022/11/28 08:53:46;;;;;;;15.38;11.88;;;;;;;;;;5006458;28;20045;-76
2022/11/28 08:56:12;;;;;;;18.08;13.60;;;;;;;;;;5011935;28;20516;-77
2022/11/28 08:58:38;;;;;;;13.63;10.32;;;;;;;;;;5014194;28;20093;-77
2022/11/28 09:03:55;;;;;;;21.60;15.90;;;;;;;;;;5009281;28;20117;-78
2022/11/28 09:06:22;;;;;;;17.98;12.68;;;;;;;;;;5006843;28;20081;-78
2022/11/28 09:08:49;;;;;;;19.55;13.77;;;;;;;;;;4978539;28;20041;-77
2022/11/28 09:11:18;;;;;;;21.23;17.48;;;;;;;;;;5011454;28;20064;-77
2022/11/28 09:13:45;;;;;;;19.67;15.60;;;;;;;;;;5016386;28;20033;-77
2022/11/28 09:16:11;;;;;;;22.30;16.23;;;;;;;;;;5015028;28;20030;-78
2022/11/28 09:18:37;;;;;;;25.52;17.55;;;;;;;;;;5016756;28;20440;-77
2022/11/28 09:21:06;;;;;;;15.30;10.52;;;;;;;;;;5011854;28;20476;-78
2022/11/28 09:23:32;;;;;;;23.13;18.48;;;;;;;;;;5008514;28;20037;-78
2022/11/28 09:25:58;;;;;;;94.30;78.85;;;;;;;;;;5008390;28;20556;-80
2022/11/28 09:28:27;;;;;;;19.33;15.02;;;;;;;;;;5011123;28;20037;-79
2022/11/28 09:31:03;;;;;;;31.80;15.82;;;;;;;;;;5007735;28;20089;-81
2022/11/28 09:33:29;;;;;;;18.30;13.20;;;;;;;;;;5007397;28;22117;-80
2022/11/28 09:35:55;;;;;;;19.77;15.63;;;;;;;;;;5008633;28;20049;-79
2022/11/28 09:38:22;;;;;;;16.17;11.50;;;;;;;;;;4992961;28;20108;-78
2022/11/28 09:40:48;;;;;;;26.33;14.77;;;;;;;;;;5009268;28;20485;-79
2022/11/28 09:43:14;;;;;;;19.27;15.43;;;;;;;;;;5015109;28;20034;-79
2022/11/28 09:45:41;;;;;;;33.25;23.17;;;;;;;;;;5012708;28;20520;-80
2022/11/28 09:48:25;;;;;;;20.63;15.55;;;;;;;;;;5010964;28;20034;-79
2022/11/28 09:50:57;;;;;;;13.43;11.00;;;;;;;;;;5009180;28;20081;-78
2022/11/28 09:53:26;;;;;;;36.38;17.13;;;;;;;;;;5011055;28;20034;-79
2022/11/28 09:56:12;;;;;;;29.67;14.32;;;;;;;;;;5005816;28;20061;-78
2022/11/28 09:58:59;;;;;;;294.00;81.68;;;;;;;;;;5009168;28;20077;-83
2022/11/28 10:01:44;;;;;;;23.48;14.63;;;;;;;;;;5008606;28;20110;-78
2022/11/28 10:04:13;;;;;;;18.20;12.20;;;;;;;;;;5006128;28;20021;-79
2022/11/28 10:06:48;;;;;;;15.57;12.88;;;;;;;;;;5008343;28;20092;-78
2022/11/28 10:09:23;;;;;;;16.63;12.70;;;;;;;;;;5005134;28;20397;-78
2022/11/28 10:12:07;;;;;;;14.32;10.43;;;;;;;;;;5004276;28;20032;-78
2022/11/28 10:14:52;;;;;;;21.13;11.40;;;;;;;;;;5016709;28;20037;-79
2022/11/28 10:17:36;;;;;;;17.98;10.35;;;;;;;;;;5012128;28;20538;-78
2022/11/28 10:20:11;;;;;;;25.20;13.45;;;;;;;;;;5010256;28;20080;-78
2022/11/28 10:22:39;;;;;;;12.02;9.43;;;;;;;;;;5000069;28;20045;-78
2022/11/28 10:25:12;;;;;;;12.02;9.23;;;;;;;;;;5010548;28;20509;-78
2022/11/28 10:27:42;;;;;;;11.25;8.80;;;;;;;;;;5005560;28;20448;-78
2022/11/28 10:30:28;;;;;;;22.05;11.45;;;;;;;;;;5008557;28;20041;-80
2022/11/28 10:33:12;;;;;;;15.75;11.90;;;;;;;;;;5005960;28;20042;-80
2022/11/28 10:35:44;;;;;;;15.70;10.55;;;;;;;;;;4991400;28;20038;-79
2022/11/28 10:38:14;;;;;;;36.28;18.58;;;;;;;;;;5005601;28;20040;-79
2022/11/28 10:40:55;;;;;;;17.23;12.85;;;;;;;;;;5007023;28;20038;-79
2022/11/28 10:43:45;;;;;;;10.75;9.40;;;;;;;;;;5007054;28;20047;-79
2022/11/28 10:46:14;;;;;;;16.30;10.05;;;;;;;;;;5010646;28;20026;-78
2022/11/28 10:48:47;;;;;;;10.55;8.70;;;;;;;;;;5008390;28;20030;-78
2022/11/28 10:51:31;;;;;;;14.57;12.95;;;;;;;;;;5009862;28;20504;-78
2022/11/28 10:54:03;;;;;;;15.07;10.50;;;;;;;;;;5009975;28;20042;-81
2022/11/28 10:56:50;;;;;;;22.90;17.02;;;;;;;;;;4993367;28;20041;-79
2022/11/28 10:59:35;;;;;;;18.85;13.90;;;;;;;;;;5008973;28;20041;-79
2022/11/28 11:02:17;;;;;;;14.77;11.05;;;;;;;;;;5006280;28;20132;-79
2022/11/28 11:04:44;;;;;;;14.52;11.18;;;;;;;;;;4986666;28;20130;-79
2022/11/28 11:07:13;;;;;;;15.15;12.73;;;;;;;;;;4973042;28;20038;-78
2022/11/28 11:09:39;;;;;;;19.45;13.32;;;;;;;;;;4989321;28;20030;-79
2022/11/28 11:12:07;;;;;;;14.93;12.20;;;;;;;;;;4987693;28;20030;-77
2022/11/28 11:14:35;;;;;;;16.50;11.25;;;;;;;;;;4984978;28;20092;-78
2022/11/28 11:17:04;;;;;;;12.38;8.93;;;;;;;;;;4984378;28;20026;-78
2022/11/28 11:19:33;;;;;;;26.52;13.05;;;;;;;;;;4983556;28;20043;-77
2022/11/28 11:22:01;;;;;;;13.48;10.10;;;;;;;;;;4985094;28;20041;-79
2022/11/28 11:24:27;;;;;;;10.00;7.88;;;;;;;;;;4982020;28;20358;-78
2022/11/28 11:26:53;;;;;;;17.30;11.18;;;;;;;;;;4991809;28;20030;-78
2022/11/28 11:29:28;;;;;;;20.38;13.65;;;;;;;;;;4991094;28;20486;-78
2022/11/28 11:31:55;;;;;;;24.52;16.90;;;;;;;;;;4975856;28;20035;-81
2022/11/28 11:34:23;;;;;;;10.05;7.88;;;;;;;;;;4992186;28;20038;-78
2022/11/28 11:37:12;;;;;;;9.38;7.75;;;;;;;;;;4990608;28;20030;-74
2022/11/28 11:39:46;;;;;;;13.07;10.90;;;;;;;;;;4988467;28;20046;-80
2022/11/28 11:42:18;;;;;;;12.73;10.93;;;;;;;;;;4989286;28;20113;-79
2022/11/28 11:44:44;;;;;;;15.68;10.30;;;;;;;;;;4987592;28;20394;-79
2022/11/28 11:47:10;;;;;;;32.40;14.63;;;;;;;;;;4994727;28;20030;-78
2022/11/28 11:49:41;;;;;;;16.42;12.15;;;;;;;;;;4991500;28;20041;-78
2022/11/28 11:52:21;;;;;;;11.20;9.70;;;;;;;;;;4985308;28;20197;-78
2022/11/28 11:54:57;;;;;;;20.42;12.90;;;;;;;;;;4981282;28;20054;-78
2022/11/28 11:57:42;;;;;;;16.65;13.25;;;;;;;;;;4994166;28;20390;-78
2022/11/28 12:00:15;;;;;;;23.85;16.88;;;;;;;;;;4988186;28;20038;-78
2022/11/28 12:02:56;;;;;;;15.77;13.07;;;;;;;;;;5004483;28;20050;-76
2022/11/28 12:05:41;;;;;;;17.30;11.38;;;;;;;;;;5012698;28;20034;-78
2022/11/28 12:08:06;;;;;;;;;;;;;;;;;;5010858;28;20861;-77
2022/11/28 12:10:40;;;;;;;16.70;10.48;;;;;;;;;;5007653;28;19913;-77
2022/11/28 12:13:08;;;;;;;67.70;25.25;;;;;;;;;;5012382;28;20025;-78
2022/11/28 12:15:52;;;;;;;16.90;10.65;;;;;;;;;;5013436;28;20065;-77
2022/11/28 12:18:18;;;;;;;6.13;5.43;;;;;;;;;;5012164;28;20034;-78
2022/11/28 12:20:45;;;;;;;9.48;6.55;;;;;;;;;;5009324;28;20544;-79
2022/11/28 12:23:29;;;;;;;11.23;7.90;;;;;;;;;;5010856;28;20473;-77
2022/11/28 12:26:01;;;;;;;9.52;6.82;;;;;;;;;;5008649;28;20033;-76
2022/11/28 12:28:46;;;;;;;11.10;7.85;;;;;;;;;;5013314;28;20424;-78
2022/11/28 12:31:12;;;;;;;;;;;;;;;;;;5012758;28;20477;-79
2022/11/28 12:33:50;;;;;;;8.65;6.75;;;;;;;;;;4994320;28;19917;-77
2022/11/28 12:36:35;;;;;;;9.10;7.55;;;;;;;;;;5005614;28;20041;-77
2022/11/28 12:39:14;;;;;;;10.02;7.45;;;;;;;;;;5010315;28;20048;-77
2022/11/28 12:41:59;;;;;;;8.20;6.85;;;;;;;;;;5009529;28;20504;-77
2022/11/28 12:44:28;;;;;;;45.60;17.75;;;;;;;;;;5008631;28;20495;-77
2022/11/28 12:47:13;;;;;;;10.40;7.43;;;;;;;;;;5008585;28;20085;-77
2022/11/28 12:49:55;;;;;;;42.72;13.75;;;;;;;;;;4994170;28;20083;-80
2022/11/28 12:52:47;;;;;;;23.27;12.45;;;;;;;;;;5012706;28;20025;-77
2022/11/28 12:55:16;;;;;;;29.80;13.20;;;;;;;;;;4986599;28;20392;-77
2022/11/28 12:58:01;;;;;;;24.55;11.77;;;;;;;;;;5003745;28;20121;-78
2022/11/28 13:00:27;;;;;;;40.75;21.05;;;;;;;;;;5014850;28;20108;-77
2022/11/28 13:02:59;;;;;;;8.65;7.00;;;;;;;;;;4993947;28;20054;-75
2022/11/28 13:05:25;;;;;;;8.20;6.25;;;;;;;;;;4979148;28;20034;-79
2022/11/28 13:08:15;;;;;;;16.40;8.32;;;;;;;;;;5009693;28;20382;-78
2022/11/28 13:10:56;;;;;;;66.68;24.58;;;;;;;;;;5009014;28;20022;-79
2022/11/28 13:13:24;;;;;;;14.68;8.63;;;;;;;;;;5007676;28;20029;-80
2022/11/28 13:16:09;;;;;;;28.17;15.40;;;;;;;;;;4994497;28;20373;-79
2022/11/28 13:18:54;;;;;;;79.20;30.88;;;;;;;;;;5009019;28;20123;-79
2022/11/28 13:21:21;;;;;;;;;;;;;;;;;;5010484;28;20038;-78
2022/11/28 13:23:53;;;;;;;32.58;16.33;;;;;;;;;;5006682;28;20022;-79
2022/11/28 13:26:36;;;;;;;21.95;13.57;;;;;;;;;;5009283;28;20113;-77
2022/11/28 13:29:16;;;;;;;33.88;15.98;;;;;;;;;;5006256;28;20035;-78
2022/11/28 13:31:51;;;;;;;47.42;19.83;;;;;;;;;;5012933;28;20022;-77
2022/11/28 13:34:19;;;;;;;51.15;20.55;;;;;;;;;;5009795;28;20022;-78
2022/11/28 13:36:47;;;;;;;46.90;19.73;;;;;;;;;;5012179;28;20026;-78
2022/11/28 13:39:30;;;;;;;54.08;23.20;;;;;;;;;;5008967;28;20038;-77
2022/11/28 13:42:15;;;;;;;108.50;39.40;;;;;;;;;;5008997;28;20489;-78
2022/11/28 13:44:41;;;;;;;;;;;;;;;;;;5009940;28;20034;-77
2022/11/28 13:47:26;;;;;;;68.32;28.27;;;;;;;;;;5009545;28;20295;-77
2022/11/28 13:50:12;;;;;;;34.10;17.48;;;;;;;;;;5009060;28;20030;-78
2022/11/28 13:52:43;;;;;;;47.72;20.98;;;;;;;;;;5010627;28;20073;-80
2022/11/28 13:55:33;;;;;;;52.03;20.67;;;;;;;;;;4991409;28;20069;-79
2022/11/28 13:58:09;;;;;;;40.10;16.55;;;;;;;;;;5010132;28;20473;-77
2022/11/28 14:00:36;;;;;;;30.05;15.50;;;;;;;;;;5011922;28;20083;-77
2022/11/28 14:03:02;;;;;;;45.60;21.02;;;;;;;;;;5013038;28;20466;-77
2022/11/28 14:05:36;;;;;;;61.08;26.55;;;;;;;;;;5012128;28;20032;-77
2022/11/28 14:08:03;;;;;;;40.53;19.20;;;;;;;;;;5012039;28;20378;-78
2022/11/28 14:10:35;;;;;;;38.88;21.98;;;;;;;;;;5012800;28;20041;-78
2022/11/28 14:13:04;;;;;;;19.88;10.85;;;;;;;;;;5012703;28;20512;-78
2022/11/28 14:15:39;;;;;;;21.77;13.18;;;;;;;;;;5012305;28;20021;-76
2022/11/28 14:18:05;;;;;;;24.90;15.40;;;;;;;;;;5012348;28;20437;-77
2022/11/28 14:20:42;;;;;;;42.35;20.70;;;;;;;;;;5012620;28;20037;-78
2022/11/28 14:23:23;;;;;;;41.75;25.40;;;;;;;;;;5012392;28;20094;-78
2022/11/28 14:25:50;;;;;;;60.63;26.95;;;;;;;;;;5013197;28;20109;-78
2022/11/28 14:28:21;;;;;;;74.05;31.30;;;;;;;;;;5013109;28;20189;-78
2022/11/28 14:30:47;;;;;;;28.80;16.15;;;;;;;;;;5013313;28;20422;-79
2022/11/28 14:33:18;;;;;;;18.45;13.80;;;;;;;;;;5013087;28;20390;-78
2022/11/28 14:36:03;;;;;;;22.92;16.30;;;;;;;;;;5013478;28;20026;-78
2022/11/28 14:38:34;;;;;;;25.38;17.17;;;;;;;;;;5013214;28;20026;-78
2022/11/28 14:41:19;;;;;;;24.08;18.65;;;;;;;;;;5013059;28;20038;-78
2022/11/28 14:43:46;;;;;;;29.45;20.50;;;;;;;;;;5013385;28;20041;-78